Time;durP1;ratioP1;P1;durP2;ratioP2;P2;SDS_P1;SDS_P2;PMS_P1;PMS_P2;Temp;Humidity;BMP_temperature;BMP_pressure;BME280_temperature;BME280_humidity;BME280_pressure;Samples;Min_cycle;Max_cycle;Signal;HPM_P1;HPM_P2
2023/04/05 00:01:48;;;;;;;33.13;9.40;;;;;;;42.79;31.69;100799.06;6099447;23;20382;-83
2023/04/05 00:04:19;;;;;;;22.80;9.10;;;;;;;42.79;31.03;100795.53;6099815;23;20417;-83
2023/04/05 00:06:49;;;;;;;26.57;9.27;;;;;;;42.77;31.70;100806.75;6099644;23;20414;-83
2023/04/05 00:09:19;;;;;;;23.33;8.47;;;;;;;42.72;31.43;100790.63;6099858;23;20390;-84
2023/04/05 00:11:45;;;;;;;26.83;8.57;;;;;;;42.81;31.42;100799.50;6102154;23;20503;-82
2023/04/05 00:14:11;;;;;;;22.70;7.70;;;;;;;42.76;30.91;100793.47;6130325;23;20405;-83
2023/04/05 00:16:37;;;;;;;23.60;9.63;;;;;;;42.77;31.64;100792.31;6129650;23;20468;-81
2023/04/05 00:19:04;;;;;;;22.87;8.20;;;;;;;42.80;31.36;100791.66;6128582;23;20602;-83
2023/04/05 00:21:32;;;;;;;16.00;8.37;;;;;;;42.72;31.64;100787.88;6129379;23;20389;-83
2023/04/05 00:23:58;;;;;;;30.20;10.50;;;;;;;42.76;31.54;100786.06;6128920;23;20480;-84
2023/04/05 00:26:25;;;;;;;17.57;7.80;;;;;;;42.74;31.88;100772.00;6129116;23;20385;-82
2023/04/05 00:28:51;;;;;;;18.23;6.90;;;;;;;42.77;31.90;100763.09;6128815;23;20491;-83
2023/04/05 00:31:18;;;;;;;21.57;8.37;;;;;;;42.78;32.24;100759.25;6128875;23;20528;-83
2023/04/05 00:33:45;;;;;;;29.10;7.23;;;;;;;42.79;31.43;100755.41;6128832;23;20388;-83
2023/04/05 00:36:15;;;;;;;25.40;8.60;;;;;;;42.82;31.59;100762.88;6128735;23;20409;-83
2023/04/05 00:38:42;;;;;;;21.10;6.93;;;;;;;42.78;31.60;100756.50;6128772;23;20386;-83
2023/04/05 00:41:09;;;;;;;24.37;7.80;;;;;;;42.73;31.23;100745.84;6128930;23;20384;-84
2023/04/05 00:43:35;;;;;;;22.03;7.03;;;;;;;42.67;31.41;100744.50;6129343;23;20416;-82
2023/04/05 00:46:01;;;;;;;13.60;7.17;;;;;;;42.71;31.39;100742.66;6129727;23;20452;-83
2023/04/05 00:48:28;;;;;;;21.27;7.67;;;;;;;42.57;31.52;100704.81;6130488;23;20416;-83
2023/04/05 00:50:56;;;;;;;19.83;7.00;;;;;;;42.74;31.71;100731.06;6128641;23;20437;-84
2023/04/05 00:53:22;;;;;;;22.30;7.80;;;;;;;42.74;31.86;100722.88;6128530;23;20422;-83
2023/04/05 00:55:50;;;;;;;25.33;9.50;;;;;;;42.71;32.34;100728.22;6128703;23;20392;-83
2023/04/05 00:58:18;;;;;;;24.20;7.80;;;;;;;42.72;32.47;100725.16;6128680;23;20385;-83
2023/04/05 01:01:12;;;;;;;20.53;9.80;;;;;;;42.65;32.23;100720.25;6128675;23;20400;-83
2023/04/05 01:03:42;;;;;;;28.13;8.20;;;;;;;42.71;32.16;100722.75;6121889;23;20458;-83
2023/04/05 01:06:33;;;;;;;22.50;9.03;;;;;;;42.68;32.27;100707.91;6128729;23;20404;-84
2023/04/05 01:09:01;;;;;;;17.97;7.03;;;;;;;42.72;32.04;100713.44;6129011;23;20388;-84
2023/04/05 01:11:31;;;;;;;31.40;10.10;;;;;;;42.59;32.27;100696.31;6128476;23;20427;-83
2023/04/05 01:14:00;;;;;;;19.00;6.37;;;;;;;42.65;32.44;100692.19;6154443;23;20433;-83
2023/04/05 01:16:27;;;;;;;22.43;6.83;;;;;;;42.64;32.63;100706.97;6128415;23;20397;-83
2023/04/05 01:18:57;;;;;;;27.73;9.40;;;;;;;42.62;32.63;100696.41;6128087;23;20827;-82
2023/04/05 01:21:37;;;;;;;22.10;8.57;;;;;;;42.64;32.61;100699.59;6128664;23;20418;-83
2023/04/05 01:24:24;;;;;;;28.97;9.37;;;;;;;42.67;32.47;100694.59;6128552;23;20392;-82
2023/04/05 01:26:56;;;;;;;24.00;7.60;;;;;;;42.65;32.64;100700.38;6128555;23;20393;-83
2023/04/05 01:29:54;;;;;;;30.23;8.13;;;;;;;42.62;32.73;100701.09;6128628;23;20427;-82
2023/04/05 01:32:30;;;;;;;20.50;6.83;;;;;;;42.65;32.73;100693.00;6077784;23;20475;-83
2023/04/05 01:35:21;;;;;;;22.23;7.43;;;;;;;42.73;32.44;100694.03;6128725;23;20392;-83
2023/04/05 01:37:52;;;;;;;22.80;7.63;;;;;;;42.62;32.47;100682.78;6128742;23;20392;-83
2023/04/05 01:40:19;;;;;;;30.30;7.67;;;;;;;42.62;32.78;100685.50;6128398;23;20439;-83
2023/04/05 01:42:45;;;;;;;16.00;6.47;;;;;;;42.53;32.66;100682.06;6128567;23;20488;-82
2023/04/05 01:45:11;;;;;;;17.07;6.30;;;;;;;42.60;32.74;100681.53;6128484;23;20865;-82
2023/04/05 01:47:37;;;;;;;26.17;9.20;;;;;;;42.63;32.67;100683.56;6128417;23;20397;-83
2023/04/05 01:50:03;;;;;;;24.10;6.83;;;;;;;42.64;32.20;100680.50;6128308;23;20424;-82
2023/04/05 01:52:29;;;;;;;23.60;8.73;;;;;;;42.63;32.33;100686.31;6127589;23;20755;-83
2023/04/05 01:54:55;;;;;;;17.90;7.03;;;;;;;42.60;32.81;100685.06;6128594;23;20417;-83
2023/04/05 01:57:21;;;;;;;24.13;8.30;;;;;;;42.62;32.84;100682.00;6128937;23;20158;-83
2023/04/05 01:59:47;;;;;;;27.73;8.73;;;;;;;42.60;32.76;100676.06;6127796;23;20503;-83
2023/04/05 02:02:13;;;;;;;26.07;6.73;;;;;;;42.62;32.34;100680.06;6128481;23;20203;-83
2023/04/05 02:04:39;;;;;;;17.50;7.53;;;;;;;42.54;32.15;100686.41;6128451;23;20181;-83
2023/04/05 02:07:05;;;;;;;22.17;6.93;;;;;;;42.55;32.26;100677.09;6128167;23;20393;-83
2023/04/05 02:09:31;;;;;;;20.00;7.03;;;;;;;42.50;32.50;100666.41;6128684;23;20502;-83
2023/04/05 02:11:56;;;;;;;19.30;6.60;;;;;;;42.53;32.11;100662.19;6128059;23;20201;-83
2023/04/05 02:14:24;;;;;;;20.57;7.17;;;;;;;42.43;32.23;100666.19;6128659;23;20396;-83
2023/04/05 02:16:54;;;;;;;25.90;8.53;;;;;;;42.49;31.64;100658.56;6128397;23;20216;-83
2023/04/05 02:19:21;;;;;;;25.80;7.03;;;;;;;42.51;31.45;100653.56;6128298;23;20385;-82
2023/04/05 02:21:54;;;;;;;23.10;6.33;;;;;;;42.54;31.35;100658.31;6129796;23;20400;-83
2023/04/05 02:24:20;;;;;;;20.07;5.93;;;;;;;42.52;31.30;100652.41;6128826;23;20381;-83
2023/04/05 02:26:47;;;;;;;16.80;6.37;;;;;;;42.40;31.28;100645.03;6131214;23;20404;-82
2023/04/05 02:29:13;;;;;;;23.83;6.30;;;;;;;42.51;30.96;100648.09;6132522;23;20392;-83
2023/04/05 02:31:42;;;;;;;20.10;7.50;;;;;;;42.25;31.02;100611.13;6132870;23;20472;-83
2023/04/05 02:34:10;;;;;;;19.17;9.30;;;;;;;42.45;31.26;100639.38;6130845;23;20512;-84
2023/04/05 02:36:36;;;;;;;20.50;6.47;;;;;;;42.30;31.31;100608.16;6131042;23;20390;-83
2023/04/05 02:39:03;;;;;;;20.27;7.07;;;;;;;42.38;31.23;100626.31;6129993;23;20416;-83
2023/04/05 02:41:29;;;;;;;18.13;8.37;;;;;;;42.35;31.93;100637.09;6130130;23;20207;-83
2023/04/05 02:43:55;;;;;;;18.63;5.40;;;;;;;42.43;31.90;100640.84;6129940;23;20412;-83
2023/04/05 02:46:21;;;;;;;18.70;7.83;;;;;;;42.38;32.03;100630.97;6130077;23;20920;-83
2023/04/05 02:48:47;;;;;;;30.03;7.07;;;;;;;42.46;31.30;100631.97;6129452;23;20931;-83
2023/04/05 02:51:12;;;;;;;20.40;5.90;;;;;;;42.36;31.43;100625.88;6129715;23;20215;-83
2023/04/05 02:53:38;;;;;;;15.43;5.73;;;;;;;42.46;31.51;100626.53;6129742;23;20161;-83
2023/04/05 02:56:05;;;;;;;13.90;6.03;;;;;;;42.49;31.71;100617.66;6129871;23;20594;-83
2023/04/05 02:58:31;;;;;;;21.10;6.90;;;;;;;42.47;31.68;100619.94;6129964;23;20749;-85
2023/04/05 03:01:00;;;;;;;22.03;7.40;;;;;;;42.44;31.57;100628.81;6129941;23;20927;-83
2023/04/05 03:03:27;;;;;;;19.40;6.50;;;;;;;42.49;31.73;100623.13;6129799;23;20389;-82
2023/04/05 03:06:17;;;;;;;18.27;6.03;;;;;;;42.43;31.59;100624.50;6129596;23;20460;-83
2023/04/05 03:08:43;;;;;;;18.77;6.00;;;;;;;42.35;32.05;100613.34;6129840;23;20872;-84
2023/04/05 03:11:30;;;;;;;26.63;6.63;;;;;;;42.42;31.91;100622.88;6129779;23;20428;-83
2023/04/05 03:13:56;;;;;;;22.20;5.43;;;;;;;42.43;32.29;100630.75;6099910;23;20457;-83
2023/04/05 03:16:22;;;;;;;22.60;7.53;;;;;;;42.30;32.35;100623.72;6100370;23;20394;-82
2023/04/05 03:18:48;;;;;;;22.23;6.93;;;;;;;42.38;31.99;100609.94;6100353;23;20421;-83
2023/04/05 03:21:16;;;;;;;23.70;7.00;;;;;;;42.42;32.38;100617.44;6100082;23;20418;-83
2023/04/05 03:23:45;;;;;;;17.00;7.03;;;;;;;42.45;32.38;100617.56;6100326;23;20396;-83
2023/04/05 03:26:14;;;;;;;27.70;7.77;;;;;;;42.49;32.65;100632.09;6100151;23;20394;-83
2023/04/05 03:28:44;;;;;;;24.17;7.60;;;;;;;42.45;32.74;100630.38;6100288;23;20416;-83
2023/04/05 03:31:13;;;;;;;19.33;7.40;;;;;;;42.45;33.00;100633.13;6099850;23;20465;-83
2023/04/05 03:33:39;;;;;;;18.27;6.50;;;;;;;42.49;32.37;100643.00;6100551;23;20413;-83
2023/04/05 03:36:05;;;;;;;19.47;7.60;;;;;;;42.39;32.43;100630.63;6099728;23;20413;-83
2023/04/05 03:38:34;;;;;;;17.50;7.70;;;;;;;42.37;32.13;100635.63;6100085;23;20397;-83
2023/04/05 03:41:02;;;;;;;20.10;6.93;;;;;;;42.41;31.96;100638.44;6100406;23;20394;-83
2023/04/05 03:43:29;;;;;;;15.67;5.80;;;;;;;42.45;32.26;100633.91;6100428;23;20389;-83
2023/04/05 03:45:55;;;;;;;19.57;8.40;;;;;;;42.39;32.52;100636.06;6100036;23;20386;-83
2023/04/05 03:48:21;;;;;;;17.00;6.27;;;;;;;42.34;32.37;100639.03;6126325;23;20373;-83
2023/04/05 03:50:47;;;;;;;20.33;5.77;;;;;;;42.32;32.72;100635.06;6099601;23;20516;-83
2023/04/05 03:53:17;;;;;;;26.73;7.77;;;;;;;42.39;32.93;100638.00;6099894;23;20398;-83
2023/04/05 03:55:48;;;;;;;23.80;7.40;;;;;;;42.30;32.64;100637.34;6099937;23;20389;-83
2023/04/05 03:58:17;;;;;;;21.13;7.43;;;;;;;42.35;32.44;100635.16;6099759;23;20421;-83
2023/04/05 04:00:43;;;;;;;23.10;8.20;;;;;;;42.24;32.95;100634.06;6094041;23;20476;-82
2023/04/05 04:03:08;;;;;;;16.27;5.40;;;;;;;42.32;32.67;100630.41;6099583;23;20410;-83
2023/04/05 04:05:37;;;;;;;20.43;5.97;;;;;;;42.25;32.41;100624.75;6099474;23;20389;-83
2023/04/05 04:08:05;;;;;;;20.63;7.77;;;;;;;42.27;32.75;100629.84;6099657;23;20425;-83
2023/04/05 04:10:31;;;;;;;20.07;7.63;;;;;;;42.13;33.30;100627.44;6099575;23;20650;-83
2023/04/05 04:12:57;;;;;;;22.63;6.43;;;;;;;42.19;33.31;100633.50;6099545;23;20467;-83
2023/04/05 04:15:23;;;;;;;22.83;7.77;;;;;;;41.99;33.21;100630.50;6099900;23;20382;-82
2023/04/05 04:17:49;;;;;;;23.00;5.90;;;;;;;41.88;33.10;100637.53;6099532;23;20391;-84
2023/04/05 04:20:15;;;;;;;23.00;7.60;;;;;;;41.90;33.18;100624.38;6126259;23;20377;-83
2023/04/05 04:22:41;;;;;;;18.70;6.80;;;;;;;41.81;33.49;100627.22;6100000;23;20453;-83
2023/04/05 04:25:09;;;;;;;27.87;6.50;;;;;;;41.94;33.58;100624.50;6100407;23;20382;-83
2023/04/05 04:27:41;;;;;;;20.83;8.17;;;;;;;41.74;33.30;100620.66;6099727;23;20378;-83
2023/04/05 04:30:12;;;;;;;21.87;8.00;;;;;;;41.78;33.84;100627.88;6126044;23;20379;-84
2023/04/05 04:32:55;;;;;;;23.50;7.00;;;;;;;41.88;34.09;100623.13;6099481;23;20489;-82
2023/04/05 04:35:28;;;;;;;21.33;9.30;;;;;;;41.98;33.32;100630.84;6099470;23;20484;-83
2023/04/05 04:38:02;;;;;;;22.03;7.03;;;;;;;41.95;33.22;100623.34;6099538;23;20414;-83
2023/04/05 04:40:31;;;;;;;19.53;7.53;;;;;;;41.92;33.07;100622.09;6099550;23;20425;-83
2023/04/05 04:42:58;;;;;;;21.30;5.80;;;;;;;41.81;33.23;100620.97;6099438;23;20421;-83
2023/04/05 04:45:25;;;;;;;15.50;5.60;;;;;;;41.91;32.53;100630.59;6099335;23;20392;-83
2023/04/05 04:47:52;;;;;;;28.13;6.27;;;;;;;41.86;32.92;100615.28;6099303;23;20414;-83
2023/04/05 04:50:19;;;;;;;24.20;7.80;;;;;;;41.80;32.83;100624.78;6099526;23;20390;-83
2023/04/05 04:52:46;;;;;;;18.00;6.17;;;;;;;41.93;32.44;100631.88;6099285;23;20390;-83
2023/04/05 04:55:12;;;;;;;19.40;6.33;;;;;;;41.80;33.00;100622.88;6099317;23;20394;-83
2023/04/05 04:57:39;;;;;;;21.77;6.53;;;;;;;41.84;32.70;100610.16;6100013;23;20402;-83
2023/04/05 05:00:13;;;;;;;25.20;7.70;;;;;;;41.74;32.96;100610.63;6099421;23;20839;-83
2023/04/05 05:02:41;;;;;;;24.63;8.73;;;;;;;41.78;33.34;100616.19;6099629;23;20401;-82
2023/04/05 05:05:07;;;;;;;27.20;8.77;;;;;;;41.86;32.92;100624.22;6125678;23;20361;-83
2023/04/05 05:07:35;;;;;;;18.80;7.90;;;;;;;41.71;33.40;100622.16;6098859;23;20410;-83
2023/04/05 05:10:01;;;;;;;16.83;6.20;;;;;;;41.72;33.35;100622.94;6125056;23;20375;-83
2023/04/05 05:12:28;;;;;;;15.87;7.23;;;;;;;41.77;33.31;100622.75;6099053;23;20453;-82
2023/04/05 05:14:54;;;;;;;23.93;7.37;;;;;;;41.73;33.49;100636.22;6099272;23;20393;-83
2023/04/05 05:17:20;;;;;;;28.33;10.17;;;;;;;41.79;32.99;100625.94;6099346;23;20417;-82
2023/04/05 05:19:46;;;;;;;17.50;5.03;;;;;;;41.88;32.90;100629.38;6099365;23;20738;-82
2023/04/05 05:22:12;;;;;;;22.27;6.10;;;;;;;41.72;32.90;100637.38;6099634;23;20905;-82
2023/04/05 05:24:38;;;;;;;15.70;6.87;;;;;;;41.65;32.98;100634.41;6099575;23;20188;-83
2023/04/05 05:27:04;;;;;;;14.60;6.83;;;;;;;41.76;33.08;100640.25;6099342;23;20397;-83
2023/04/05 05:29:31;;;;;;;18.77;5.10;;;;;;;41.73;33.14;100647.13;6099170;23;20390;-83
2023/04/05 05:31:57;;;;;;;21.87;6.17;;;;;;;41.77;33.08;100658.19;6099607;23;20446;-82
2023/04/05 05:34:23;;;;;;;17.40;5.57;;;;;;;41.81;32.83;100649.00;6099086;23;20390;-83
2023/04/05 05:36:51;;;;;;;15.13;5.23;;;;;;;41.81;32.90;100659.91;6096491;23;20393;-82
2023/04/05 05:39:17;;;;;;;12.13;5.03;;;;;;;41.71;33.09;100665.72;6099516;23;20389;-80
2023/04/05 05:41:44;;;;;;;14.77;7.37;;;;;;;41.68;32.77;100663.69;6098569;23;20406;-82
2023/04/05 05:44:10;;;;;;;15.00;6.57;;;;;;;41.72;33.17;100655.63;6099449;23;20424;-81
2023/04/05 05:46:36;;;;;;;21.17;6.87;;;;;;;41.65;33.38;100649.94;6099137;23;20387;-81
2023/04/05 05:49:02;;;;;;;11.83;4.70;;;;;;;41.70;33.15;100666.06;6098878;23;20410;-82
2023/04/05 05:51:27;;;;;;;18.87;6.07;;;;;;;41.72;33.24;100664.59;6099161;23;20429;-81
2023/04/05 05:53:53;;;;;;;16.27;5.77;;;;;;;41.75;33.08;100665.91;6098774;23;20509;-81
2023/04/05 05:56:19;;;;;;;17.43;7.37;;;;;;;41.69;33.27;100669.94;6099016;23;20386;-82
2023/04/05 05:58:45;;;;;;;16.63;5.70;;;;;;;41.76;33.44;100686.56;6099256;23;20913;-83
2023/04/05 06:01:13;;;;;;;21.63;6.60;;;;;;;41.74;33.24;100686.03;6100507;23;20433;-83
2023/04/05 06:03:39;;;;;;;24.73;6.10;;;;;;;41.67;33.37;100692.03;6101050;23;20390;-84
2023/04/05 06:06:07;;;;;;;20.63;5.90;;;;;;;41.69;33.30;100703.41;6101025;23;20397;-82
2023/04/05 06:08:33;;;;;;;19.43;5.77;;;;;;;41.71;33.20;100703.88;6100862;23;20496;-82
2023/04/05 06:10:59;;;;;;;27.43;8.50;;;;;;;41.73;33.51;100701.59;6100735;23;20508;-80
2023/04/05 06:13:26;;;;;;;25.90;6.30;;;;;;;41.79;33.15;100718.56;6103477;23;20472;-82
2023/04/05 06:15:51;;;;;;;18.23;6.60;;;;;;;41.75;33.07;100714.94;6100881;23;20452;-83
2023/04/05 06:18:20;;;;;;;21.30;12.90;;;;;;;41.88;32.96;100702.13;6100830;23;20734;-83
2023/04/05 06:20:46;;;;;;;21.30;10.33;;;;;;;41.97;33.54;100700.88;6101091;23;20425;-84
2023/04/05 06:23:12;;;;;;;20.67;7.20;;;;;;;42.01;33.70;100711.91;6100655;23;20417;-82
2023/04/05 06:25:39;;;;;;;22.47;6.63;;;;;;;42.02;33.65;100697.94;6100794;23;20382;-82
2023/04/05 06:28:06;;;;;;;19.53;5.83;;;;;;;41.89;33.71;100703.72;6100711;23;20894;-82
2023/04/05 06:30:33;;;;;;;19.30;6.90;;;;;;;41.77;34.36;100712.66;6100481;23;20397;-82
2023/04/05 06:33:00;;;;;;;20.90;8.67;;;;;;;41.95;33.92;100707.81;6100382;23;20386;-82
2023/04/05 06:35:26;;;;;;;28.50;8.03;;;;;;;41.95;34.03;100702.38;6100857;23;20394;-82
2023/04/05 06:37:52;;;;;;;16.60;7.00;;;;;;;41.93;34.11;100705.44;6100751;23;20386;-84
2023/04/05 06:40:18;;;;;;;23.53;7.50;;;;;;;42.02;34.20;100710.78;6098927;23;20386;-85
2023/04/05 06:42:44;;;;;;;29.73;9.40;;;;;;;41.96;34.02;100725.75;6100056;23;20390;-83
2023/04/05 06:45:11;;;;;;;21.90;7.53;;;;;;;41.99;33.56;100733.22;6099996;23;20437;-83
2023/04/05 06:47:38;;;;;;;21.40;7.40;;;;;;;42.04;33.25;100733.81;6099496;23;20382;-83
2023/04/05 06:50:07;;;;;;;23.80;6.97;;;;;;;42.15;33.57;100742.34;6100074;23;20382;-83
2023/04/05 06:52:33;;;;;;;36.70;10.17;;;;;;;42.28;33.55;100748.66;6099136;23;20414;-83
2023/04/05 06:55:00;;;;;;;25.40;5.63;;;;;;;42.25;33.34;100744.69;6098362;23;20432;-84
2023/04/05 06:57:26;;;;;;;16.90;7.20;;;;;;;42.21;33.50;100757.38;6125201;23;20355;-84
2023/04/05 06:59:53;;;;;;;26.30;8.93;;;;;;;42.08;33.52;100763.94;6098861;23;20375;-85
2023/04/05 07:02:20;;;;;;;19.13;6.47;;;;;;;42.04;33.27;100763.00;6099396;23;20863;-83
2023/04/05 07:04:47;;;;;;;22.63;7.47;;;;;;;41.99;33.25;100766.75;6100217;23;20380;-83
2023/04/05 07:07:13;;;;;;;26.70;7.23;;;;;;;42.00;32.66;100775.72;6100020;23;20401;-82
2023/04/05 07:09:39;;;;;;;20.13;7.43;;;;;;;41.98;32.62;100776.03;6100285;23;20385;-82
2023/04/05 07:12:07;;;;;;;23.97;9.37;;;;;;;42.02;33.31;100787.06;6102740;23;20516;-82
2023/04/05 07:14:34;;;;;;;13.30;5.40;;;;;;;42.17;33.03;100788.38;6129913;23;20389;-83
2023/04/05 07:17:01;;;;;;;18.30;6.50;;;;;;;42.04;33.03;100790.25;6129589;23;20733;-83
2023/04/05 07:19:27;;;;;;;18.43;7.67;;;;;;;42.15;33.01;100799.59;6129738;23;20385;-82
2023/04/05 07:21:53;;;;;;;22.13;7.77;;;;;;;42.26;33.07;100810.91;6129876;23;20377;-82
2023/04/05 07:24:19;;;;;;;23.80;7.27;;;;;;;42.14;33.15;100800.72;6156015;23;20468;-83
2023/04/05 07:26:45;;;;;;;25.77;8.23;;;;;;;42.30;33.34;100809.09;6156335;23;20389;-82
2023/04/05 07:29:11;;;;;;;17.57;7.80;;;;;;;42.39;32.57;100816.03;6129933;23;20385;-83
2023/04/05 07:31:40;;;;;;;26.33;9.27;;;;;;;42.17;33.17;100819.16;6155932;23;20484;-83
2023/04/05 07:34:06;;;;;;;18.43;8.97;;;;;;;42.29;32.83;100821.13;6129730;23;20472;-78
2023/04/05 07:36:32;;;;;;;18.70;6.57;;;;;;;42.35;32.94;100819.75;6156088;23;20408;-83
2023/04/05 07:38:59;;;;;;;14.50;6.60;;;;;;;42.30;32.96;100839.09;6129399;23;20477;-83
2023/04/05 07:41:34;;;;;;;20.63;6.43;;;;;;;42.44;32.86;100833.31;6129721;23;20377;-82
2023/04/05 07:44:00;;;;;;;17.07;8.33;;;;;;;42.40;32.81;100836.69;6129632;23;20385;-82
2023/04/05 07:46:27;;;;;;;18.07;6.20;;;;;;;42.42;33.00;100849.19;6129749;23;20381;-85
2023/04/05 07:48:53;;;;;;;18.77;8.10;;;;;;;42.40;32.88;100844.09;6129479;23;20885;-83
2023/04/05 07:51:19;;;;;;;29.57;9.00;;;;;;;42.36;32.82;100859.56;6129596;23;20898;-82
2023/04/05 07:53:45;;;;;;;15.40;8.70;;;;;;;42.35;33.06;100857.94;6129180;23;20386;-82
2023/04/05 07:56:15;;;;;;;23.90;8.40;;;;;;;42.54;33.30;100860.94;6134223;23;20385;-82
2023/04/05 07:58:41;;;;;;;24.27;9.67;;;;;;;42.47;32.94;100873.53;6129431;23;20488;-83
2023/04/05 08:01:09;;;;;;;14.00;6.40;;;;;;;42.51;32.76;100874.47;6155820;23;20447;-84
2023/04/05 08:03:38;;;;;;;26.70;9.10;;;;;;;42.47;32.85;100887.16;6129328;23;20492;-83
2023/04/05 08:06:12;;;;;;;18.00;8.60;;;;;;;42.32;33.22;100889.41;6156126;23;20353;-80
2023/04/05 08:08:39;;;;;;;17.00;5.90;;;;;;;42.38;33.10;100904.41;6155850;23;20816;-82
2023/04/05 08:11:05;;;;;;;24.20;8.20;;;;;;;42.63;32.62;100908.03;6129123;23;20427;-83
2023/04/05 08:13:32;;;;;;;21.47;9.90;;;;;;;42.57;32.36;100914.84;6108382;23;20453;-83
2023/04/05 08:16:00;;;;;;;17.00;7.07;;;;;;;42.59;31.96;100919.94;6099838;23;20446;-82
2023/04/05 08:18:26;;;;;;;19.20;7.23;;;;;;;42.45;32.39;100912.06;6099928;23;20378;-82
2023/04/05 08:20:56;;;;;;;17.43;6.40;;;;;;;42.59;32.48;100925.41;6099119;23;20406;-82
2023/04/05 08:23:23;;;;;;;37.03;7.30;;;;;;;42.63;32.48;100926.34;6099463;23;20389;-81
2023/04/05 08:25:49;;;;;;;26.53;8.17;;;;;;;42.47;32.86;100936.25;6100044;23;20389;-84
2023/04/05 08:28:15;;;;;;;15.83;5.47;;;;;;;42.54;32.42;100940.03;6099918;23;20759;-80
2023/04/05 08:30:41;;;;;;;34.27;7.03;;;;;;;42.45;32.66;100943.97;6099496;23;20433;-81
2023/04/05 08:33:07;;;;;;;25.03;6.60;;;;;;;42.51;32.29;100935.25;6099797;23;20393;-81
2023/04/05 08:35:36;;;;;;;22.80;6.37;;;;;;;42.53;32.45;100937.63;6099349;23;20405;-83
2023/04/05 08:38:03;;;;;;;24.00;7.40;;;;;;;42.39;33.24;100943.38;6097806;23;20417;-83
2023/04/05 08:40:43;;;;;;;24.10;7.80;;;;;;;42.49;32.51;100940.25;6099531;23;20413;-81
2023/04/05 08:43:42;;;;;;;21.40;6.87;;;;;;;42.48;32.01;100926.94;6099610;23;20418;-82
2023/04/05 08:46:09;;;;;;;24.50;6.73;;;;;;;42.78;32.24;100935.78;6098895;23;20890;-79
2023/04/05 08:48:35;;;;;;;29.27;7.60;;;;;;;42.85;32.06;100936.84;6099613;23;20385;-79
2023/04/05 08:51:01;;;;;;;27.33;6.10;;;;;;;42.99;32.30;100942.00;6099206;23;20443;-78
2023/04/05 08:53:28;;;;;;;20.60;6.27;;;;;;;42.91;31.76;100934.69;6099399;23;20394;-78
2023/04/05 08:55:56;;;;;;;23.70;6.97;;;;;;;42.87;31.68;100937.28;6099406;23;20496;-78
2023/04/05 08:58:24;;;;;;;20.33;5.93;;;;;;;42.77;32.15;100945.09;6099255;23;20390;-78
2023/04/05 09:00:51;;;;;;;21.93;6.47;;;;;;;42.81;31.81;100944.09;6099216;23;20433;-81
2023/04/05 09:03:28;;;;;;;23.30;5.27;;;;;;;42.48;32.11;100948.75;6099338;23;20394;-85
2023/04/05 09:05:57;;;;;;;26.93;7.43;;;;;;;42.40;32.09;100948.50;6099847;23;20460;-89
2023/04/05 09:08:24;;;;;;;21.53;6.00;;;;;;;42.53;32.28;100956.72;6100141;23;20906;-88
2023/04/05 09:10:50;;;;;;;15.87;9.30;;;;;;;42.63;32.18;100961.78;6126238;23;20417;-88
2023/04/05 09:13:17;;;;;;;20.97;8.53;;;;;;;42.51;32.46;100957.06;6100045;23;20454;-88
2023/04/05 09:15:43;;;;;;;17.00;6.37;;;;;;;42.68;32.01;100947.94;6076236;23;20394;-89
2023/04/05 09:18:09;;;;;;;24.93;6.87;;;;;;;42.50;32.18;100963.66;6100290;23;20415;-89
2023/04/05 09:20:36;;;;;;;23.50;10.40;;;;;;;42.28;32.63;100969.47;6100111;23;20433;-88
2023/04/05 09:23:02;;;;;;;24.63;6.40;;;;;;;42.49;32.19;100956.63;6099970;23;20413;-90
2023/04/05 09:25:38;;;;;;;18.60;5.67;;;;;;;42.69;32.15;100970.56;6100255;23;20385;-90
2023/04/05 09:28:06;;;;;;;25.10;7.10;;;;;;;42.62;31.86;100971.91;6100198;23;20385;-89
2023/04/05 09:30:33;;;;;;;23.93;7.30;;;;;;;42.55;31.87;100963.44;6099804;23;20961;-87
2023/04/05 09:32:59;;;;;;;27.27;7.57;;;;;;;42.62;31.86;100965.66;6100307;23;20406;-86
2023/04/05 09:35:28;;;;;;;18.53;7.37;;;;;;;42.67;31.92;100970.13;6101549;23;20730;-84
2023/04/05 09:38:00;;;;;;;23.93;8.03;;;;;;;42.82;31.41;100964.78;6101897;23;20735;-88
2023/04/05 09:40:44;;;;;;;21.93;6.13;;;;;;;42.84;31.33;100965.25;6128061;23;20385;-87
2023/04/05 09:43:33;;;;;;;18.63;6.57;;;;;;;42.79;31.49;100970.16;6102352;23;20504;-88
2023/04/05 09:46:00;;;;;;;21.03;7.20;;;;;;;42.86;31.39;100964.91;6102202;23;20761;-88
2023/04/05 09:48:48;;;;;;;15.30;5.27;;;;;;;42.64;31.17;100964.19;6101578;23;20441;-88
2023/04/05 09:51:15;;;;;;;23.87;6.60;;;;;;;42.51;30.79;100954.34;6101739;23;20539;-90
2023/04/05 09:53:59;;;;;;;18.57;8.67;;;;;;;42.65;31.38;100954.84;6102207;23;20377;-90
2023/04/05 09:56:26;;;;;;;17.13;7.33;;;;;;;42.79;31.55;100946.38;6102033;23;20886;-88
2023/04/05 09:58:52;;;;;;;24.90;7.50;;;;;;;42.80;31.30;100945.25;6102053;23;20460;-89
2023/04/05 10:01:20;;;;;;;20.00;9.63;;;;;;;42.85;31.11;100944.22;6101978;23;20370;-87
2023/04/05 10:03:47;;;;;;;19.53;6.43;;;;;;;42.87;31.71;100939.22;6101892;23;20437;-87
2023/04/05 10:06:15;;;;;;;25.27;5.40;;;;;;;42.87;31.71;100947.41;6101377;23;20422;-86
2023/04/05 10:08:42;;;;;;;25.37;8.17;;;;;;;42.93;31.63;100949.56;6101385;23;20409;-87
2023/04/05 10:11:09;;;;;;;19.90;5.90;;;;;;;42.90;31.46;100922.94;6100396;23;20421;-86
2023/04/05 10:13:37;;;;;;;15.77;7.43;;;;;;;43.13;31.49;100937.00;6101403;23;20517;-88
2023/04/05 10:16:10;;;;;;;21.97;7.77;;;;;;;43.14;31.91;100935.06;6100938;23;20936;-87
2023/04/05 10:18:45;;;;;;;27.83;8.37;;;;;;;43.02;32.00;100940.50;6101708;23;20386;-88
2023/04/05 10:21:14;;;;;;;21.90;9.97;;;;;;;42.91;32.00;100938.22;6101704;23;20409;-90
2023/04/05 10:23:45;;;;;;;21.77;7.93;;;;;;;43.03;32.35;100940.19;6102026;23;20777;-90
2023/04/05 10:26:52;;;;;;;15.80;5.90;;;;;;;43.02;31.99;100941.31;6102114;23;20398;-89
2023/04/05 10:29:29;;;;;;;17.43;6.13;;;;;;;43.07;32.05;100937.56;6068272;23;20385;-89
2023/04/05 10:32:03;;;;;;;24.73;6.37;;;;;;;43.05;31.94;100927.00;6101062;23;20438;-88
2023/04/05 10:34:32;;;;;;;27.40;8.10;;;;;;;43.07;32.01;100932.09;6098647;23;20385;-86
2023/04/05 10:37:01;;;;;;;21.63;7.73;;;;;;;43.09;32.27;100924.34;6101459;23;20390;-88
2023/04/05 10:39:33;;;;;;;24.10;6.20;;;;;;;43.15;31.96;100931.19;6102180;23;20390;-90
2023/04/05 10:42:03;;;;;;;26.90;8.23;;;;;;;43.22;31.91;100931.44;6101234;23;20393;-88
2023/04/05 10:44:35;;;;;;;28.93;10.00;;;;;;;43.00;32.24;100923.69;6101261;23;20410;-88
2023/04/05 10:47:03;;;;;;;24.10;6.33;;;;;;;42.77;32.52;100924.06;6101093;23;20398;-89
2023/04/05 10:49:49;;;;;;;26.80;10.03;;;;;;;42.71;32.75;100906.34;6104199;23;20533;-88
2023/04/05 10:52:16;;;;;;;18.27;7.77;;;;;;;43.13;32.26;100917.09;6101241;23;20468;-86
2023/04/05 10:54:44;;;;;;;19.77;7.10;;;;;;;42.99;31.93;100916.63;6101189;23;20871;-87
2023/04/05 10:57:11;;;;;;;14.83;6.60;;;;;;;43.10;32.59;100915.06;6100695;23;20946;-88
2023/04/05 10:59:45;;;;;;;25.17;9.33;;;;;;;42.77;32.08;100891.34;6127182;23;20461;-87
2023/04/05 11:02:11;;;;;;;22.33;7.03;;;;;;;43.03;31.55;100906.63;6100757;23;20385;-88
2023/04/05 11:04:39;;;;;;;23.33;8.00;;;;;;;43.14;31.98;100888.66;6100921;23;20386;-85
2023/04/05 11:07:18;;;;;;;29.50;8.30;;;;;;;43.13;32.27;100906.16;6101451;23;20405;-89
2023/04/05 11:10:04;;;;;;;24.17;6.40;;;;;;;43.11;31.70;100895.59;6101083;23;20451;-88
2023/04/05 11:12:45;;;;;;;23.07;6.93;;;;;;;43.03;32.18;100885.59;6133476;23;20788;-88
2023/04/05 11:15:26;;;;;;;19.33;7.80;;;;;;;42.78;32.38;100889.41;6130377;23;20385;-88
2023/04/05 11:18:32;;;;;;;21.20;7.67;;;;;;;42.96;31.74;100888.06;6130294;23;20397;-86
2023/04/05 11:21:08;;;;;;;25.53;6.73;;;;;;;43.12;32.37;100877.28;6111453;23;20377;-87
2023/04/05 11:24:15;;;;;;;29.10;9.83;;;;;;;42.92;31.69;100855.22;6130602;23;20385;-92
2023/04/05 11:26:43;;;;;;;19.10;6.67;;;;;;;43.14;31.90;100877.72;6130886;23;20428;-87